Time;durP1;ratioP1;P1;durP2;ratioP2;P2;SDS_P1;SDS_P2;PMS_P1;PMS_P2;Temp;Humidity;BMP_temperature;BMP_pressure;BME280_temperature;BME280_humidity;BME280_pressure;Samples;Min_cycle;Max_cycle;Signal;HPM_P1;HPM_P2
2022/03/05 00:02:08;;;;;;;34.25;22.10;;;;;;;;;;4992908;28;20187;-81
2022/03/05 00:04:34;;;;;;;36.50;23.58;;;;;;;;;;4992081;28;20207;-81
2022/03/05 00:07:00;;;;;;;35.13;23.23;;;;;;;;;;4980238;28;20237;-81
2022/03/05 00:09:26;;;;;;;36.00;22.25;;;;;;;;;;4983742;28;20470;-81
2022/03/05 00:11:52;;;;;;;38.40;24.25;;;;;;;;;;5018744;28;20247;-81
2022/03/05 00:14:18;;;;;;;37.72;22.83;;;;;;;;;;4990839;28;20194;-81
2022/03/05 00:16:44;;;;;;;35.75;23.40;;;;;;;;;;5009756;28;20188;-81
2022/03/05 00:19:10;;;;;;;36.37;24.03;;;;;;;;;;5009527;28;20211;-81
2022/03/05 00:21:36;;;;;;;32.80;23.05;;;;;;;;;;4995810;28;20422;-82
2022/03/05 00:24:02;;;;;;;35.95;23.48;;;;;;;;;;4995565;28;20179;-82
2022/03/05 00:26:28;;;;;;;31.90;20.55;;;;;;;;;;4995271;28;20218;-81
2022/03/05 00:28:54;;;;;;;36.20;23.63;;;;;;;;;;4995212;28;20218;-81
2022/03/05 00:31:21;;;;;;;36.83;23.52;;;;;;;;;;4993530;28;20194;-81
2022/03/05 00:33:47;;;;;;;37.47;24.40;;;;;;;;;;4984928;28;20186;-81
2022/03/05 00:36:13;;;;;;;33.15;20.67;;;;;;;;;;4985041;28;20191;-82
2022/03/05 00:38:39;;;;;;;34.88;23.30;;;;;;;;;;4985195;28;20235;-81
2022/03/05 00:41:05;;;;;;;36.92;23.92;;;;;;;;;;4989645;28;20188;-81
2022/03/05 00:43:31;;;;;;;35.22;24.33;;;;;;;;;;5009569;28;20190;-81
2022/03/05 00:45:57;;;;;;;36.72;23.33;;;;;;;;;;4994933;28;20258;-81
2022/03/05 00:48:23;;;;;;;34.53;22.90;;;;;;;;;;4982416;28;20220;-81
2022/03/05 00:50:49;;;;;;;33.25;22.25;;;;;;;;;;4984977;28;20192;-81
2022/03/05 00:53:17;;;;;;;35.55;22.83;;;;;;;;;;4979652;28;20188;-81
2022/03/05 00:55:43;;;;;;;37.15;23.10;;;;;;;;;;4971729;28;20187;-81
2022/03/05 00:58:09;;;;;;;32.83;22.65;;;;;;;;;;4982309;28;20216;-81
2022/03/05 01:00:35;;;;;;;35.78;22.60;;;;;;;;;;4967979;28;20185;-81
2022/03/05 01:03:02;;;;;;;35.13;23.42;;;;;;;;;;5003861;28;20195;-81
2022/03/05 01:05:28;;;;;;;34.88;23.23;;;;;;;;;;4977838;28;20187;-81
2022/03/05 01:07:54;;;;;;;34.75;22.38;;;;;;;;;;4981703;28;20360;-81
2022/03/05 01:10:20;;;;;;;32.58;22.52;;;;;;;;;;4981994;28;20176;-81
2022/03/05 01:12:46;;;;;;;35.20;22.27;;;;;;;;;;4984514;28;20164;-81
2022/03/05 01:15:12;;;;;;;31.77;21.02;;;;;;;;;;4982773;28;20305;-81
2022/03/05 01:17:38;;;;;;;33.10;21.92;;;;;;;;;;4982513;28;20603;-82
2022/03/05 01:20:05;;;;;;;29.67;20.42;;;;;;;;;;4982063;28;20235;-81
2022/03/05 01:22:31;;;;;;;31.38;19.85;;;;;;;;;;4981732;28;20240;-81
2022/03/05 01:24:57;;;;;;;37.07;23.53;;;;;;;;;;4967541;28;20247;-81
2022/03/05 01:27:23;;;;;;;33.27;21.13;;;;;;;;;;4978249;28;20439;-81
2022/03/05 01:29:49;;;;;;;32.55;21.92;;;;;;;;;;4978814;28;20453;-81
2022/03/05 01:32:15;;;;;;;32.33;20.75;;;;;;;;;;4977491;28;20199;-81
2022/03/05 01:34:41;;;;;;;31.10;20.10;;;;;;;;;;4993696;28;20195;-81
2022/03/05 01:37:07;;;;;;;33.97;21.40;;;;;;;;;;4982710;28;20187;-81
2022/03/05 01:39:33;;;;;;;35.80;21.95;;;;;;;;;;4968102;28;20506;-81
2022/03/05 01:42:01;;;;;;;33.70;21.33;;;;;;;;;;4983166;28;20183;-81
2022/03/05 01:44:27;;;;;;;31.63;19.90;;;;;;;;;;4974856;28;20234;-81
2022/03/05 01:46:53;;;;;;;34.10;21.35;;;;;;;;;;4971183;28;20247;-81
2022/03/05 01:49:20;;;;;;;29.38;20.67;;;;;;;;;;4981117;28;20209;-81
2022/03/05 01:51:46;;;;;;;32.35;20.85;;;;;;;;;;4965871;28;20184;-81
2022/03/05 01:54:12;;;;;;;33.08;21.45;;;;;;;;;;4983418;28;20188;-81
2022/03/05 01:56:39;;;;;;;32.13;21.20;;;;;;;;;;4975706;28;20189;-81
2022/03/05 01:59:05;;;;;;;35.75;21.73;;;;;;;;;;4970553;28;20247;-81
2022/03/05 02:01:31;;;;;;;31.75;20.17;;;;;;;;;;4993419;28;20188;-81
2022/03/05 02:03:57;;;;;;;31.85;21.58;;;;;;;;;;4981871;28;20229;-81
2022/03/05 02:06:24;;;;;;;32.17;21.75;;;;;;;;;;4971268;28;20169;-81
2022/03/05 02:08:50;;;;;;;28.20;19.13;;;;;;;;;;4977530;28;20184;-81
2022/03/05 02:11:16;;;;;;;32.28;20.17;;;;;;;;;;4977949;28;20187;-81
2022/03/05 02:13:42;;;;;;;32.80;21.88;;;;;;;;;;4993518;28;20405;-82
2022/03/05 02:16:09;;;;;;;33.95;21.02;;;;;;;;;;4964672;28;20283;-82
2022/03/05 02:18:35;;;;;;;33.75;20.55;;;;;;;;;;4967008;28;20197;-82
2022/03/05 02:21:01;;;;;;;38.33;21.90;;;;;;;;;;4978972;28;20232;-82
2022/03/05 02:23:27;;;;;;;35.33;21.88;;;;;;;;;;4976550;28;20256;-82
2022/03/05 02:25:54;;;;;;;31.90;20.92;;;;;;;;;;4992897;28;20642;-82
2022/03/05 02:28:21;;;;;;;37.47;22.02;;;;;;;;;;4994045;28;20190;-81
2022/03/05 02:30:47;;;;;;;35.50;21.45;;;;;;;;;;4979558;28;20204;-81
2022/03/05 02:33:13;;;;;;;39.95;22.42;;;;;;;;;;4980806;28;20172;-81
2022/03/05 02:35:39;;;;;;;32.25;20.65;;;;;;;;;;4975327;28;20279;-81
2022/03/05 02:38:05;;;;;;;35.47;21.33;;;;;;;;;;4977317;28;20234;-81
2022/03/05 02:40:31;;;;;;;32.47;20.53;;;;;;;;;;4994207;28;20252;-82
2022/03/05 02:42:57;;;;;;;32.47;20.35;;;;;;;;;;4979194;28;20415;-81
2022/03/05 02:45:23;;;;;;;43.10;21.90;;;;;;;;;;4968231;28;20176;-81
2022/03/05 02:47:49;;;;;;;33.33;21.10;;;;;;;;;;4979352;28;20184;-81
2022/03/05 02:50:15;;;;;;;33.50;20.27;;;;;;;;;;4975052;28;20199;-81
2022/03/05 02:52:41;;;;;;;35.60;22.00;;;;;;;;;;4970481;28;20443;-81
2022/03/05 02:55:07;;;;;;;35.17;20.45;;;;;;;;;;4980172;28;20198;-81
2022/03/05 02:57:33;;;;;;;34.35;20.95;;;;;;;;;;4966529;28;20177;-81
2022/03/05 02:59:59;;;;;;;33.60;20.65;;;;;;;;;;4973523;28;20215;-81
2022/03/05 03:02:26;;;;;;;32.63;19.85;;;;;;;;;;4990604;28;20183;-81
2022/03/05 03:04:52;;;;;;;35.63;20.63;;;;;;;;;;4996916;28;20187;-81
2022/03/05 03:07:18;;;;;;;32.38;19.80;;;;;;;;;;4979924;28;20192;-81
2022/03/05 03:09:44;;;;;;;34.13;20.00;;;;;;;;;;4978589;28;20184;-81
2022/03/05 03:12:10;;;;;;;32.87;20.80;;;;;;;;;;4975869;28;20675;-81
2022/03/05 03:14:36;;;;;;;32.72;19.85;;;;;;;;;;4979606;28;20457;-81
2022/03/05 03:17:02;;;;;;;32.60;20.98;;;;;;;;;;4977120;28;20200;-81
2022/03/05 03:19:28;;;;;;;34.15;20.58;;;;;;;;;;4977810;28;20757;-81
2022/03/05 03:21:54;;;;;;;37.47;21.58;;;;;;;;;;4979574;28;20179;-81
2022/03/05 03:24:20;;;;;;;37.35;21.13;;;;;;;;;;4968506;28;20187;-81
2022/03/05 03:26:46;;;;;;;34.10;20.07;;;;;;;;;;4975812;28;20259;-81
2022/03/05 03:29:12;;;;;;;36.13;20.80;;;;;;;;;;4979372;28;20463;-82
2022/03/05 03:31:39;;;;;;;35.72;21.08;;;;;;;;;;4981246;28;20217;-81
2022/03/05 03:34:05;;;;;;;38.45;21.58;;;;;;;;;;4979589;28;20282;-81
2022/03/05 03:36:31;;;;;;;33.33;21.45;;;;;;;;;;4966494;28;20176;-81
2022/03/05 03:38:57;;;;;;;34.53;20.25;;;;;;;;;;4970383;28;20288;-81
2022/03/05 03:41:23;;;;;;;40.60;22.25;;;;;;;;;;4969645;28;20211;-81
2022/03/05 03:43:49;;;;;;;38.15;21.80;;;;;;;;;;4974507;28;20187;-81
2022/03/05 03:46:15;;;;;;;35.80;21.03;;;;;;;;;;4994455;28;20188;-81
2022/03/05 03:48:41;;;;;;;36.00;21.52;;;;;;;;;;4981921;28;20780;-81
2022/03/05 03:51:07;;;;;;;34.92;20.23;;;;;;;;;;4968660;28;20211;-81
2022/03/05 03:53:33;;;;;;;35.42;21.50;;;;;;;;;;4990717;28;20207;-81
2022/03/05 03:55:59;;;;;;;35.25;20.30;;;;;;;;;;4973001;28;20191;-82
2022/03/05 03:58:25;;;;;;;36.58;21.45;;;;;;;;;;4980941;28;20674;-81
2022/03/05 04:00:51;;;;;;;34.30;21.00;;;;;;;;;;4978168;28;20247;-81
2022/03/05 04:03:17;;;;;;;37.08;22.25;;;;;;;;;;4982649;28;20176;-81
2022/03/05 04:05:43;;;;;;;32.70;20.40;;;;;;;;;;4978939;28;20668;-81
2022/03/05 04:10:54;;;;;;;35.65;21.13;;;;;;;;;;4968780;28;20198;-81
2022/03/05 04:13:20;;;;;;;37.65;21.30;;;;;;;;;;4965624;28;20176;-81
2022/03/05 04:15:46;;;;;;;33.00;19.98;;;;;;;;;;4978870;28;20187;-81
2022/03/05 04:18:12;;;;;;;32.22;20.30;;;;;;;;;;4967665;28;20208;-81
2022/03/05 04:20:38;;;;;;;39.03;20.83;;;;;;;;;;4976444;28;20192;-81
2022/03/05 04:23:05;;;;;;;37.47;22.98;;;;;;;;;;4978458;28;20206;-81
2022/03/05 04:25:31;;;;;;;34.85;20.95;;;;;;;;;;4979723;28;22338;-81
2022/03/05 04:27:57;;;;;;;37.58;21.75;;;;;;;;;;4982403;28;20267;-81
2022/03/05 04:30:23;;;;;;;38.55;22.85;;;;;;;;;;4971478;28;20187;-81
2022/03/05 04:32:49;;;;;;;37.70;22.33;;;;;;;;;;4981437;28;20188;-81
2022/03/05 04:35:16;;;;;;;42.55;22.55;;;;;;;;;;4982589;28;20196;-80
2022/03/05 04:37:42;;;;;;;35.20;22.77;;;;;;;;;;4983866;28;20186;-81
2022/03/05 04:40:08;;;;;;;37.53;21.33;;;;;;;;;;4966849;28;20631;-81
2022/03/05 04:42:34;;;;;;;34.33;21.42;;;;;;;;;;4979040;28;20204;-81
2022/03/05 04:45:02;;;;;;;36.65;21.38;;;;;;;;;;4973192;28;20188;-81
2022/03/05 04:47:28;;;;;;;36.75;20.63;;;;;;;;;;4996476;28;20177;-81
2022/03/05 04:49:54;;;;;;;36.28;21.35;;;;;;;;;;4968670;28;20212;-81
2022/03/05 04:52:20;;;;;;;38.35;21.35;;;;;;;;;;4982261;28;20230;-81
2022/03/05 04:54:46;;;;;;;33.50;20.03;;;;;;;;;;4982484;28;20637;-81
2022/03/05 04:57:12;;;;;;;38.58;21.80;;;;;;;;;;4978029;28;20515;-81
2022/03/05 04:59:38;;;;;;;37.90;21.52;;;;;;;;;;4974489;28;20289;-81
2022/03/05 05:02:04;;;;;;;32.00;20.08;;;;;;;;;;4975428;28;20267;-81
2022/03/05 05:04:30;;;;;;;37.58;19.70;;;;;;;;;;4981622;28;20194;-81
2022/03/05 05:06:56;;;;;;;35.75;19.42;;;;;;;;;;4981292;28;20180;-81
2022/03/05 05:09:22;;;;;;;35.25;21.17;;;;;;;;;;4983472;28;20175;-81
2022/03/05 05:11:48;;;;;;;33.70;20.20;;;;;;;;;;4974690;28;20181;-82
2022/03/05 05:14:14;;;;;;;40.63;23.07;;;;;;;;;;4996734;28;20192;-82
2022/03/05 05:16:40;;;;;;;45.25;21.80;;;;;;;;;;4982612;28;20443;-82
2022/03/05 05:19:25;;;;;;;32.65;21.85;;;;;;;;;;4982589;28;20507;-82
2022/03/05 05:21:51;;;;;;;35.92;21.73;;;;;;;;;;4978949;28;20190;-82
2022/03/05 05:24:17;;;;;;;36.70;19.80;;;;;;;;;;4969754;28;20185;-82
2022/03/05 05:26:44;;;;;;;42.03;23.58;;;;;;;;;;4986844;28;20189;-81
2022/03/05 05:29:10;;;;;;;37.35;22.27;;;;;;;;;;4974456;28;20264;-81
2022/03/05 05:31:36;;;;;;;37.72;20.60;;;;;;;;;;4981914;28;20191;-81
2022/03/05 05:34:02;;;;;;;40.90;22.23;;;;;;;;;;4981486;28;20184;-81
2022/03/05 05:36:29;;;;;;;39.03;21.98;;;;;;;;;;4974133;28;20536;-81
2022/03/05 05:38:55;;;;;;;40.65;22.35;;;;;;;;;;4981386;28;20232;-82
2022/03/05 05:41:21;;;;;;;44.05;24.90;;;;;;;;;;4982347;28;20214;-82
2022/03/05 05:43:47;;;;;;;37.08;22.85;;;;;;;;;;4980862;28;20180;-81
2022/03/05 05:46:13;;;;;;;34.10;20.70;;;;;;;;;;4980235;28;20258;-81
2022/03/05 05:48:40;;;;;;;43.10;21.50;;;;;;;;;;4976787;28;20205;-81
2022/03/05 05:51:06;;;;;;;41.15;22.15;;;;;;;;;;4977276;28;20276;-81
2022/03/05 05:53:32;;;;;;;39.80;22.63;;;;;;;;;;4971671;28;20669;-81
2022/03/05 05:55:58;;;;;;;34.90;20.48;;;;;;;;;;4972283;28;20256;-82
2022/03/05 05:58:24;;;;;;;34.88;20.05;;;;;;;;;;4982109;28;20287;-81
2022/03/05 06:00:50;;;;;;;34.88;21.05;;;;;;;;;;4982451;28;20584;-81
2022/03/05 06:03:16;;;;;;;36.67;21.08;;;;;;;;;;4978146;28;20682;-81
2022/03/05 06:05:42;;;;;;;32.72;19.85;;;;;;;;;;4979584;28;20184;-81
2022/03/05 06:08:08;;;;;;;40.45;21.20;;;;;;;;;;4981995;28;20198;-81
2022/03/05 06:10:35;;;;;;;35.58;21.35;;;;;;;;;;4978926;28;20181;-81
2022/03/05 06:13:01;;;;;;;36.00;21.58;;;;;;;;;;4981647;28;20199;-81
2022/03/05 06:15:27;;;;;;;34.72;19.88;;;;;;;;;;4967430;28;20177;-81
2022/03/05 06:17:54;;;;;;;37.72;19.05;;;;;;;;;;4987390;28;20191;-81
2022/03/05 06:20:21;;;;;;;37.20;20.83;;;;;;;;;;4979379;28;20200;-81
2022/03/05 06:22:47;;;;;;;31.90;18.58;;;;;;;;;;4981010;28;20191;-81
2022/03/05 06:25:13;;;;;;;36.83;19.67;;;;;;;;;;4982007;28;20208;-81
2022/03/05 06:27:39;;;;;;;37.30;19.52;;;;;;;;;;4981809;28;20176;-81
2022/03/05 06:30:05;;;;;;;39.17;20.52;;;;;;;;;;4980314;28;20196;-81
2022/03/05 06:32:31;;;;;;;32.70;18.33;;;;;;;;;;4980780;28;20223;-81
2022/03/05 06:34:57;;;;;;;36.47;18.92;;;;;;;;;;4978561;28;20406;-81
2022/03/05 06:37:23;;;;;;;40.30;21.15;;;;;;;;;;4979049;28;20235;-81
2022/03/05 06:39:49;;;;;;;39.20;20.75;;;;;;;;;;4980448;28;20262;-81
2022/03/05 06:42:15;;;;;;;33.20;19.13;;;;;;;;;;4978628;28;20184;-81
2022/03/05 06:44:42;;;;;;;30.92;18.63;;;;;;;;;;4968142;28;20200;-81
2022/03/05 06:47:08;;;;;;;34.45;19.08;;;;;;;;;;4972056;28;20207;-81
2022/03/05 06:49:34;;;;;;;42.10;20.33;;;;;;;;;;4980572;28;20192;-81
2022/03/05 06:52:00;;;;;;;36.13;19.90;;;;;;;;;;4981934;28;20179;-81
2022/03/05 06:54:26;;;;;;;35.63;19.88;;;;;;;;;;4978545;28;20179;-81
2022/03/05 06:56:53;;;;;;;33.60;20.45;;;;;;;;;;4972624;28;20219;-82
2022/03/05 06:59:18;;;;;;;32.25;17.92;;;;;;;;;;4966264;28;20208;-82
2022/03/05 07:01:44;;;;;;;34.67;19.13;;;;;;;;;;4969087;28;20191;-81
2022/03/05 07:04:10;;;;;;;35.40;20.25;;;;;;;;;;4979436;28;20183;-81
2022/03/05 07:06:39;;;;;;;33.40;19.45;;;;;;;;;;4968914;28;20233;-82
2022/03/05 07:09:05;;;;;;;37.22;22.27;;;;;;;;;;4979548;28;20216;-82
2022/03/05 07:11:32;;;;;;;36.55;20.73;;;;;;;;;;4980053;28;20264;-82
2022/03/05 07:13:59;;;;;;;39.17;20.52;;;;;;;;;;4980041;28;20203;-82
2022/03/05 07:16:25;;;;;;;35.78;21.13;;;;;;;;;;4980640;28;20184;-82
2022/03/05 07:18:51;;;;;;;32.85;19.52;;;;;;;;;;4979029;28;20253;-82
2022/03/05 07:21:17;;;;;;;32.75;18.50;;;;;;;;;;4968186;28;20609;-81
2022/03/05 07:23:43;;;;;;;35.47;19.60;;;;;;;;;;4979341;28;20180;-82
2022/03/05 07:26:09;;;;;;;36.92;19.13;;;;;;;;;;4979690;28;20243;-81
2022/03/05 07:28:35;;;;;;;37.15;20.08;;;;;;;;;;4981274;28;20709;-81
2022/03/05 07:31:01;;;;;;;32.35;19.60;;;;;;;;;;4963725;28;20203;-82
2022/03/05 07:33:27;;;;;;;34.38;19.10;;;;;;;;;;4998924;28;20179;-81
2022/03/05 07:35:54;;;;;;;36.13;20.85;;;;;;;;;;4970059;28;20195;-82
2022/03/05 07:38:20;;;;;;;37.83;21.83;;;;;;;;;;5000480;28;20223;-82
2022/03/05 07:40:46;;;;;;;45.63;25.50;;;;;;;;;;4968563;28;20270;-82
2022/03/05 07:43:12;;;;;;;40.85;22.83;;;;;;;;;;4980477;28;20188;-82
2022/03/05 07:45:38;;;;;;;40.78;22.70;;;;;;;;;;4976344;28;20178;-82
2022/03/05 07:48:05;;;;;;;37.00;22.10;;;;;;;;;;4968478;28;20562;-82
2022/03/05 07:50:31;;;;;;;40.83;22.85;;;;;;;;;;4994574;28;20548;-81
2022/03/05 07:52:57;;;;;;;42.28;22.20;;;;;;;;;;4971138;28;20587;-81
2022/03/05 07:55:23;;;;;;;39.42;21.42;;;;;;;;;;4993488;28;20184;-81
2022/03/05 07:57:49;;;;;;;38.72;21.42;;;;;;;;;;4980577;28;20191;-81
2022/03/05 08:00:15;;;;;;;38.33;19.38;;;;;;;;;;4976786;28;20208;-81
2022/03/05 08:02:41;;;;;;;34.83;19.60;;;;;;;;;;4981449;28;20180;-81
2022/03/05 08:05:08;;;;;;;34.63;19.10;;;;;;;;;;4978883;28;20189;-82
2022/03/05 08:07:34;;;;;;;39.10;21.50;;;;;;;;;;4971470;28;20368;-82
2022/03/05 08:10:00;;;;;;;34.33;19.83;;;;;;;;;;4981753;28;20175;-80
2022/03/05 08:12:26;;;;;;;34.45;19.85;;;;;;;;;;4983057;28;20251;-80
2022/03/05 08:14:52;;;;;;;35.78;20.10;;;;;;;;;;4980975;28;20188;-80
2022/03/05 08:17:18;;;;;;;31.55;20.85;;;;;;;;;;4981076;28;20192;-80
2022/03/05 08:19:44;;;;;;;31.70;21.65;;;;;;;;;;4980576;28;20203;-80
2022/03/05 08:22:10;;;;;;;30.67;19.75;;;;;;;;;;4979764;28;20184;-80
2022/03/05 08:24:36;;;;;;;37.63;20.70;;;;;;;;;;4982091;28;20184;-80
2022/03/05 08:27:02;;;;;;;36.03;20.50;;;;;;;;;;4979173;28;20439;-80
2022/03/05 08:29:29;;;;;;;31.77;20.52;;;;;;;;;;4981453;28;20279;-80
2022/03/05 08:31:55;;;;;;;35.08;19.98;;;;;;;;;;4980896;28;20180;-80
2022/03/05 08:34:21;;;;;;;36.40;20.40;;;;;;;;;;4980484;28;20255;-80
2022/03/05 08:36:47;;;;;;;36.17;21.23;;;;;;;;;;4979009;28;20424;-80
2022/03/05 08:39:13;;;;;;;35.60;20.33;;;;;;;;;;4980354;28;20215;-80
2022/03/05 08:41:39;;;;;;;32.30;20.00;;;;;;;;;;4980503;28;20172;-80
2022/03/05 08:44:05;;;;;;;33.70;20.10;;;;;;;;;;4978394;28;20180;-80
2022/03/05 08:46:31;;;;;;;32.70;19.85;;;;;;;;;;4979550;28;20192;-80
2022/03/05 08:48:57;;;;;;;34.85;20.52;;;;;;;;;;4981470;28;20180;-80
2022/03/05 08:51:23;;;;;;;37.35;21.85;;;;;;;;;;4978593;28;20187;-81
2022/03/05 08:53:49;;;;;;;33.42;20.58;;;;;;;;;;4981666;28;20242;-79
2022/03/05 08:56:15;;;;;;;29.73;20.17;;;;;;;;;;4981540;28;20192;-80
2022/03/05 08:58:41;;;;;;;29.83;20.40;;;;;;;;;;4983204;28;20297;-79
2022/03/05 09:01:08;;;;;;;32.83;21.40;;;;;;;;;;4972154;28;20184;-80
2022/03/05 09:03:34;;;;;;;36.63;21.45;;;;;;;;;;4976037;28;20188;-80
2022/03/05 09:06:01;;;;;;;36.80;21.00;;;;;;;;;;4981491;28;20180;-81
2022/03/05 09:08:27;;;;;;;35.50;19.65;;;;;;;;;;4976993;28;20192;-80
2022/03/05 09:10:53;;;;;;;31.10;20.70;;;;;;;;;;4992945;28;20188;-80
2022/03/05 09:13:19;;;;;;;30.85;19.80;;;;;;;;;;5012309;28;20188;-80
2022/03/05 09:15:45;;;;;;;30.27;20.08;;;;;;;;;;4977649;28;20191;-81
2022/03/05 09:18:12;;;;;;;29.52;20.40;;;;;;;;;;4971632;28;20215;-79
2022/03/05 09:20:38;;;;;;;29.50;18.55;;;;;;;;;;5006751;28;20512;-80
2022/03/05 09:23:04;;;;;;;32.75;20.25;;;;;;;;;;4982516;28;20282;-80
2022/03/05 09:25:30;;;;;;;28.05;19.60;;;;;;;;;;4981381;28;20176;-79
2022/03/05 09:27:56;;;;;;;29.48;19.20;;;;;;;;;;4981688;28;20259;-80
2022/03/05 09:30:22;;;;;;;29.92;19.27;;;;;;;;;;4969498;28;20188;-80
2022/03/05 09:32:48;;;;;;;29.85;19.98;;;;;;;;;;4991564;28;20184;-79
2022/03/05 09:35:15;;;;;;;27.08;16.58;;;;;;;;;;4991484;28;20200;-80
2022/03/05 09:37:41;;;;;;;29.83;18.75;;;;;;;;;;4971604;28;20191;-80
2022/03/05 09:40:08;;;;;;;33.13;20.25;;;;;;;;;;4982072;28;20715;-80
2022/03/05 09:42:34;;;;;;;28.77;19.85;;;;;;;;;;4966940;28;20176;-80
2022/03/05 09:45:00;;;;;;;25.87;16.97;;;;;;;;;;4992809;28;20488;-80
2022/03/05 09:47:27;;;;;;;31.07;20.03;;;;;;;;;;5002272;28;20455;-79
2022/03/05 09:49:54;;;;;;;27.90;19.65;;;;;;;;;;4973387;28;20458;-80
2022/03/05 09:52:20;;;;;;;30.52;20.30;;;;;;;;;;4978050;28;20268;-80
2022/03/05 09:54:46;;;;;;;30.83;20.00;;;;;;;;;;4978854;28;20180;-80
2022/03/05 09:57:13;;;;;;;32.43;21.50;;;;;;;;;;4979453;28;20199;-79
2022/03/05 09:59:40;;;;;;;30.80;19.10;;;;;;;;;;4979972;28;20467;-79
2022/03/05 10:02:07;;;;;;;27.83;17.63;;;;;;;;;;4979259;28;20294;-80
2022/03/05 10:04:33;;;;;;;30.55;19.17;;;;;;;;;;4979063;28;20234;-79
2022/03/05 10:07:06;;;;;;;26.45;17.75;;;;;;;;;;4977660;28;20206;-78
2022/03/05 10:09:32;;;;;;;25.65;18.08;;;;;;;;;;4970470;28;20646;-78
2022/03/05 10:11:58;;;;;;;23.10;16.60;;;;;;;;;;4970320;28;20191;-78
2022/03/05 10:14:24;;;;;;;23.30;17.83;;;;;;;;;;4976395;28;20496;-78
2022/03/05 10:16:54;;;;;;;24.52;17.65;;;;;;;;;;4980521;28;20184;-78
2022/03/05 10:19:21;;;;;;;27.27;16.70;;;;;;;;;;4980504;28;20203;-79
2022/03/05 10:22:08;;;;;;;26.38;18.08;;;;;;;;;;4980418;28;20180;-78
2022/03/05 10:24:38;;;;;;;23.38;18.23;;;;;;;;;;4967224;28;20191;-79
2022/03/05 10:27:05;;;;;;;24.15;16.40;;;;;;;;;;4981211;28;20637;-78
2022/03/05 10:29:36;;;;;;;26.15;18.15;;;;;;;;;;4975830;28;20204;-78
2022/03/05 10:32:08;;;;;;;29.05;18.15;;;;;;;;;;4992716;28;20184;-79
2022/03/05 10:34:44;;;;;;;27.38;19.52;;;;;;;;;;4993877;28;20192;-78
2022/03/05 10:37:11;;;;;;;27.77;16.52;;;;;;;;;;4981996;28;20197;-78
2022/03/05 10:39:37;;;;;;;25.60;17.50;;;;;;;;;;4966256;28;20231;-78
2022/03/05 10:42:15;;;;;;;24.48;17.80;;;;;;;;;;4970137;28;20192;-78
2022/03/05 10:44:41;;;;;;;28.45;19.40;;;;;;;;;;4992551;28;20180;-78
2022/03/05 10:47:07;;;;;;;26.50;17.73;;;;;;;;;;4970179;28;20255;-79
2022/03/05 10:49:37;;;;;;;25.73;17.80;;;;;;;;;;4968839;28;20203;-79
2022/03/05 10:52:04;;;;;;;29.98;18.95;;;;;;;;;;4965648;28;20435;-78
2022/03/05 10:54:34;;;;;;;25.80;18.17;;;;;;;;;;4967307;28;20263;-78
2022/03/05 10:57:00;;;;;;;27.95;18.67;;;;;;;;;;5000912;28;20184;-78
2022/03/05 10:59:26;;;;;;;26.80;19.13;;;;;;;;;;4990164;28;20640;-78
2022/03/05 11:01:53;;;;;;;26.58;19.30;;;;;;;;;;5001820;28;20920;-78
2022/03/05 11:04:19;;;;;;;31.38;18.70;;;;;;;;;;4967591;28;20178;-79
2022/03/05 11:06:45;;;;;;;25.52;18.20;;;;;;;;;;4980215;28;20613;-78
2022/03/05 11:09:12;;;;;;;26.42;17.60;;;;;;;;;;4969196;28;20223;-78
2022/03/05 11:11:40;;;;;;;24.75;18.10;;;;;;;;;;4990890;28;20188;-78
2022/03/05 11:14:07;;;;;;;26.33;18.55;;;;;;;;;;4990332;28;20706;-78
2022/03/05 11:16:33;;;;;;;26.00;19.63;;;;;;;;;;4968234;28;20195;-79
2022/03/05 11:19:00;;;;;;;28.83;19.65;;;;;;;;;;4965586;28;20212;-78
2022/03/05 11:21:28;;;;;;;29.88;20.77;;;;;;;;;;4967168;28;20231;-78
2022/03/05 11:23:54;;;;;;;25.15;19.10;;;;;;;;;;4976801;28;20244;-78
2022/03/05 11:26:20;;;;;;;34.70;20.38;;;;;;;;;;4990243;28;20246;-78
2022/03/05 11:28:48;;;;;;;28.02;19.70;;;;;;;;;;4994386;28;20188;-78
2022/03/05 11:31:17;;;;;;;30.30;20.02;;;;;;;;;;4995210;28;20188;-78
2022/03/05 11:33:45;;;;;;;27.45;20.08;;;;;;;;;;4977910;28;20192;-79
2022/03/05 11:36:31;;;;;;;28.38;20.75;;;;;;;;;;4977098;28;20180;-78
2022/03/05 11:39:16;;;;;;;31.70;20.23;;;;;;;;;;4976748;28;20248;-79
2022/03/05 11:41:51;;;;;;;28.50;20.10;;;;;;;;;;4979797;28;20186;-78
2022/03/05 11:44:18;;;;;;;27.40;19.67;;;;;;;;;;4992513;28;20185;-78
2022/03/05 11:46:45;;;;;;;23.80;17.90;;;;;;;;;;4979050;28;20211;-78
2022/03/05 11:49:11;;;;;;;27.95;20.17;;;;;;;;;;4979598;28;20288;-78
2022/03/05 11:51:57;;;;;;;29.98;19.83;;;;;;;;;;4968026;28;20212;-78
2022/03/05 11:54:24;;;;;;;28.52;19.77;;;;;;;;;;4977543;28;20242;-79
2022/03/05 11:57:13;;;;;;;32.22;22.67;;;;;;;;;;4979984;28;20186;-77
2022/03/05 11:59:40;;;;;;;23.75;18.58;;;;;;;;;;4979507;28;20208;-78
2022/03/05 12:02:06;;;;;;;29.50;20.52;;;;;;;;;;4978346;28;20253;-78
2022/03/05 12:04:32;;;;;;;26.60;19.77;;;;;;;;;;4978933;28;20557;-78
2022/03/05 12:07:11;;;;;;;27.02;18.83;;;;;;;;;;4977033;28;20188;-78
2022/03/05 12:09:44;;;;;;;26.58;20.38;;;;;;;;;;4966064;28;20176;-78
2022/03/05 12:12:15;;;;;;;26.30;19.70;;;;;;;;;;4978607;28;20179;-78
2022/03/05 12:14:56;;;;;;;26.27;19.77;;;;;;;;;;4979222;28;20192;-78
2022/03/05 12:17:26;;;;;;;27.60;20.65;;;;;;;;;;4976925;28;20192;-78
2022/03/05 12:19:54;;;;;;;33.55;23.30;;;;;;;;;;4978344;28;20215;-78
2022/03/05 12:22:20;;;;;;;35.13;20.50;;;;;;;;;;4977996;28;20259;-78
2022/03/05 12:24:46;;;;;;;29.88;20.88;;;;;;;;;;4979164;28;20229;-78
2022/03/05 12:27:14;;;;;;;31.15;20.05;;;;;;;;;;4969150;28;20180;-78
2022/03/05 12:29:50;;;;;;;29.77;20.70;;;;;;;;;;4964880;28;20210;-79
2022/03/05 12:32:17;;;;;;;31.50;21.75;;;;;;;;;;5003921;28;20597;-78
2022/03/05 12:34:43;;;;;;;27.10;21.95;;;;;;;;;;4991489;28;20180;-77
2022/03/05 12:37:09;;;;;;;27.38;21.60;;;;;;;;;;4971748;28;20191;-78
2022/03/05 12:39:41;;;;;;;32.08;21.75;;;;;;;;;;4977439;28;20230;-78
2022/03/05 12:42:08;;;;;;;37.42;23.25;;;;;;;;;;5010809;28;20190;-77
2022/03/05 12:44:37;;;;;;;31.52;21.77;;;;;;;;;;4976656;28;20176;-77
2022/03/05 12:47:03;;;;;;;30.92;22.42;;;;;;;;;;4967756;28;20191;-78
2022/03/05 12:49:29;;;;;;;31.08;22.92;;;;;;;;;;4981487;28;20202;-77
2022/03/05 12:51:55;;;;;;;28.67;20.50;;;;;;;;;;4989275;28;20201;-78
2022/03/05 12:54:21;;;;;;;33.70;22.40;;;;;;;;;;4966687;28;20197;-77
2022/03/05 12:56:47;;;;;;;29.27;21.40;;;;;;;;;;4979301;28;20433;-77
2022/03/05 12:59:14;;;;;;;30.97;21.83;;;;;;;;;;4978649;28;20210;-77
2022/03/05 13:01:40;;;;;;;30.40;21.63;;;;;;;;;;5002914;28;20472;-77
2022/03/05 13:04:06;;;;;;;32.47;22.58;;;;;;;;;;4967227;28;20206;-78
2022/03/05 13:06:32;;;;;;;28.35;21.73;;;;;;;;;;4977899;28;20189;-78
2022/03/05 13:08:58;;;;;;;29.73;21.70;;;;;;;;;;4971770;28;20264;-78
2022/03/05 13:11:25;;;;;;;28.65;22.50;;;;;;;;;;4972393;28;20194;-78
2022/03/05 13:13:59;;;;;;;27.48;21.13;;;;;;;;;;4993900;28;20207;-77
2022/03/05 13:16:25;;;;;;;30.50;23.38;;;;;;;;;;4993823;28;20197;-78
2022/03/05 13:18:55;;;;;;;31.70;22.98;;;;;;;;;;4981759;28;20374;-78
2022/03/05 13:21:21;;;;;;;32.67;23.13;;;;;;;;;;4968344;28;20237;-77
2022/03/05 13:23:47;;;;;;;30.23;21.50;;;;;;;;;;4979799;28;20191;-77
2022/03/05 13:26:13;;;;;;;30.60;21.48;;;;;;;;;;4978282;28;20441;-77
2022/03/05 13:28:39;;;;;;;35.58;23.73;;;;;;;;;;4971191;28;20270;-78
2022/03/05 13:31:05;;;;;;;33.28;23.85;;;;;;;;;;4968008;28;20188;-78
2022/03/05 13:33:38;;;;;;;32.33;20.95;;;;;;;;;;4968006;28;20186;-77
2022/03/05 13:36:11;;;;;;;28.60;21.50;;;;;;;;;;4969968;28;20196;-78
2022/03/05 13:38:37;;;;;;;34.95;23.40;;;;;;;;;;4976437;28;20229;-77
2022/03/05 13:41:04;;;;;;;33.35;21.23;;;;;;;;;;4980797;28;20187;-77
2022/03/05 13:43:30;;;;;;;31.25;22.30;;;;;;;;;;4979148;28;20188;-78
2022/03/05 13:45:58;;;;;;;39.58;23.20;;;;;;;;;;4980810;28;20225;-77
2022/03/05 13:48:26;;;;;;;30.35;22.48;;;;;;;;;;4977114;28;20185;-78
2022/03/05 13:50:52;;;;;;;32.42;22.67;;;;;;;;;;4980004;28;20211;-77
2022/03/05 13:53:18;;;;;;;30.25;22.60;;;;;;;;;;4980861;28;20192;-77
2022/03/05 13:55:44;;;;;;;35.92;24.25;;;;;;;;;;4980903;28;20184;-78
2022/03/05 13:58:21;;;;;;;35.95;25.23;;;;;;;;;;5047187;28;20203;-78
2022/03/05 14:00:48;;;;;;;33.15;23.65;;;;;;;;;;4975206;28;20185;-78
2022/03/05 14:03:16;;;;;;;25.48;20.05;;;;;;;;;;4969528;28;20392;-77
2022/03/05 14:05:42;;;;;;;33.38;23.45;;;;;;;;;;4972855;28;20184;-78
2022/03/05 14:08:08;;;;;;;31.37;22.40;;;;;;;;;;4971078;28;20242;-77
2022/03/05 14:10:34;;;;;;;30.77;22.93;;;;;;;;;;4994167;28;20648;-77
2022/03/05 14:13:00;;;;;;;33.50;22.17;;;;;;;;;;4982029;28;20442;-77
2022/03/05 14:15:27;;;;;;;32.67;24.02;;;;;;;;;;4982115;28;20688;-77
2022/03/05 14:18:04;;;;;;;33.28;23.83;;;;;;;;;;4981404;28;20271;-77